sensor_id;sensor_type;location;lat;lon;timestamp;P1;durP1;ratioP1;P2;durP2;ratioP2
64842;SDS011;51310;52.198;5.422;2022-09-02T00:01:19;2.03;;;0.77;;
64842;SDS011;51310;52.198;5.422;2022-09-02T00:03:49;2.75;;;0.90;;
64842;SDS011;51310;52.198;5.422;2022-09-02T00:06:19;2.25;;;0.90;;
64842;SDS011;51310;52.198;5.422;2022-09-02T00:08:45;4.55;;;0.80;;
64842;SDS011;51310;52.198;5.422;2022-09-02T00:11:12;1.40;;;0.85;;
64842;SDS011;51310;52.198;5.422;2022-09-02T00:13:45;4.78;;;0.90;;
64842;SDS011;51310;52.198;5.422;2022-09-02T00:16:11;1.98;;;0.70;;
64842;SDS011;51310;52.198;5.422;2022-09-02T00:18:39;5.80;;;0.80;;
64842;SDS011;51310;52.198;5.422;2022-09-02T00:21:06;3.42;;;0.73;;
64842;SDS011;51310;52.198;5.422;2022-09-02T00:23:32;1.15;;;0.60;;
64842;SDS011;51310;52.198;5.422;2022-09-02T00:25:58;2.42;;;0.60;;
64842;SDS011;51310;52.198;5.422;2022-09-02T00:28:24;5.83;;;1.00;;
64842;SDS011;51310;52.198;5.422;2022-09-02T00:30:50;1.73;;;0.80;;
64842;SDS011;51310;52.198;5.422;2022-09-02T00:33:16;3.15;;;0.90;;
64842;SDS011;51310;52.198;5.422;2022-09-02T00:35:42;1.38;;;0.85;;
64842;SDS011;51310;52.198;5.422;2022-09-02T00:38:09;1.98;;;0.80;;
64842;SDS011;51310;52.198;5.422;2022-09-02T00:40:35;1.27;;;0.75;;
64842;SDS011;51310;52.198;5.422;2022-09-02T00:43:05;3.97;;;1.05;;
64842;SDS011;51310;52.198;5.422;2022-09-02T00:45:33;3.47;;;0.90;;
64842;SDS011;51310;52.198;5.422;2022-09-02T00:48:00;5.63;;;1.20;;
64842;SDS011;51310;52.198;5.422;2022-09-02T00:50:27;2.25;;;0.85;;
64842;SDS011;51310;52.198;5.422;2022-09-02T00:53:04;1.70;;;0.90;;
64842;SDS011;51310;52.198;5.422;2022-09-02T00:55:40;2.30;;;0.88;;
64842;SDS011;51310;52.198;5.422;2022-09-02T00:58:14;3.85;;;1.17;;
64842;SDS011;51310;52.198;5.422;2022-09-02T01:00:47;3.50;;;0.80;;
64842;SDS011;51310;52.198;5.422;2022-09-02T01:03:17;4.68;;;0.90;;
64842;SDS011;51310;52.198;5.422;2022-09-02T01:05:46;2.45;;;0.63;;
64842;SDS011;51310;52.198;5.422;2022-09-02T01:08:17;2.92;;;1.10;;
64842;SDS011;51310;52.198;5.422;2022-09-02T01:10:53;1.10;;;0.60;;
64842;SDS011;51310;52.198;5.422;2022-09-02T01:13:23;2.55;;;0.98;;
64842;SDS011;51310;52.198;5.422;2022-09-02T01:15:54;2.00;;;0.80;;
64842;SDS011;51310;52.198;5.422;2022-09-02T01:18:44;1.20;;;0.60;;
64842;SDS011;51310;52.198;5.422;2022-09-02T01:21:16;3.22;;;0.90;;
64842;SDS011;51310;52.198;5.422;2022-09-02T01:23:43;1.92;;;0.90;;
64842;SDS011;51310;52.198;5.422;2022-09-02T01:26:11;1.70;;;0.77;;
64842;SDS011;51310;52.198;5.422;2022-09-02T01:28:38;5.45;;;0.85;;
64842;SDS011;51310;52.198;5.422;2022-09-02T01:31:05;1.83;;;0.88;;
64842;SDS011;51310;52.198;5.422;2022-09-02T01:33:31;2.63;;;0.93;;
64842;SDS011;51310;52.198;5.422;2022-09-02T01:35:58;1.60;;;0.80;;
64842;SDS011;51310;52.198;5.422;2022-09-02T01:38:26;3.75;;;0.80;;
64842;SDS011;51310;52.198;5.422;2022-09-02T01:40:53;4.32;;;0.90;;
64842;SDS011;51310;52.198;5.422;2022-09-02T01:43:20;1.87;;;0.73;;
64842;SDS011;51310;52.198;5.422;2022-09-02T01:45:52;2.60;;;0.60;;
64842;SDS011;51310;52.198;5.422;2022-09-02T01:48:21;3.20;;;0.93;;
64842;SDS011;51310;52.198;5.422;2022-09-02T01:50:49;4.97;;;0.80;;
64842;SDS011;51310;52.198;5.422;2022-09-02T01:53:26;1.98;;;0.77;;
64842;SDS011;51310;52.198;5.422;2022-09-02T01:55:53;5.93;;;1.00;;
64842;SDS011;51310;52.198;5.422;2022-09-02T01:58:19;2.72;;;0.80;;
64842;SDS011;51310;52.198;5.422;2022-09-02T02:00:46;2.58;;;0.90;;
64842;SDS011;51310;52.198;5.422;2022-09-02T02:03:12;5.07;;;0.85;;
64842;SDS011;51310;52.198;5.422;2022-09-02T02:05:39;2.17;;;0.77;;
64842;SDS011;51310;52.198;5.422;2022-09-02T02:08:05;3.22;;;0.95;;
64842;SDS011;51310;52.198;5.422;2022-09-02T02:10:32;1.67;;;0.82;;
64842;SDS011;51310;52.198;5.422;2022-09-02T02:12:59;5.35;;;1.02;;
64842;SDS011;51310;52.198;5.422;2022-09-02T02:15:26;1.75;;;1.02;;
64842;SDS011;51310;52.198;5.422;2022-09-02T02:17:53;0.98;;;0.70;;
64842;SDS011;51310;52.198;5.422;2022-09-02T02:20:19;5.03;;;0.90;;
64842;SDS011;51310;52.198;5.422;2022-09-02T02:22:46;1.20;;;0.77;;
64842;SDS011;51310;52.198;5.422;2022-09-02T02:25:13;1.75;;;0.90;;
64842;SDS011;51310;52.198;5.422;2022-09-02T02:27:41;2.67;;;0.85;;
64842;SDS011;51310;52.198;5.422;2022-09-02T02:30:08;4.60;;;0.90;;
64842;SDS011;51310;52.198;5.422;2022-09-02T02:32:37;4.43;;;0.88;;
64842;SDS011;51310;52.198;5.422;2022-09-02T02:35:04;4.50;;;0.80;;
64842;SDS011;51310;52.198;5.422;2022-09-02T02:37:30;1.50;;;0.80;;
64842;SDS011;51310;52.198;5.422;2022-09-02T02:39:56;1.35;;;0.70;;
64842;SDS011;51310;52.198;5.422;2022-09-02T02:42:22;2.10;;;0.90;;
64842;SDS011;51310;52.198;5.422;2022-09-02T02:44:48;1.95;;;1.05;;
64842;SDS011;51310;52.198;5.422;2022-09-02T02:47:14;1.50;;;1.07;;
64842;SDS011;51310;52.198;5.422;2022-09-02T02:49:41;1.80;;;0.63;;
64842;SDS011;51310;52.198;5.422;2022-09-02T02:52:09;2.88;;;1.10;;
64842;SDS011;51310;52.198;5.422;2022-09-02T02:54:36;3.33;;;1.08;;
64842;SDS011;51310;52.198;5.422;2022-09-02T02:57:03;2.22;;;0.95;;
64842;SDS011;51310;52.198;5.422;2022-09-02T02:59:31;1.42;;;0.68;;
64842;SDS011;51310;52.198;5.422;2022-09-02T03:01:58;1.67;;;0.80;;
64842;SDS011;51310;52.198;5.422;2022-09-02T03:04:24;2.58;;;0.85;;
64842;SDS011;51310;52.198;5.422;2022-09-02T03:06:50;1.75;;;0.70;;
64842;SDS011;51310;52.198;5.422;2022-09-02T03:09:16;2.37;;;1.00;;
64842;SDS011;51310;52.198;5.422;2022-09-02T03:11:44;3.00;;;0.77;;
64842;SDS011;51310;52.198;5.422;2022-09-02T03:14:11;2.38;;;0.85;;
64842;SDS011;51310;52.198;5.422;2022-09-02T03:16:37;3.60;;;1.25;;
64842;SDS011;51310;52.198;5.422;2022-09-02T03:19:03;2.08;;;0.80;;
64842;SDS011;51310;52.198;5.422;2022-09-02T03:21:30;2.38;;;0.90;;
64842;SDS011;51310;52.198;5.422;2022-09-02T03:23:57;3.67;;;0.75;;
64842;SDS011;51310;52.198;5.422;2022-09-02T03:26:23;3.30;;;0.90;;
64842;SDS011;51310;52.198;5.422;2022-09-02T03:28:52;3.90;;;1.20;;
64842;SDS011;51310;52.198;5.422;2022-09-02T03:31:21;5.43;;;0.90;;
64842;SDS011;51310;52.198;5.422;2022-09-02T03:33:50;1.92;;;0.90;;
64842;SDS011;51310;52.198;5.422;2022-09-02T03:36:20;2.17;;;0.90;;
64842;SDS011;51310;52.198;5.422;2022-09-02T03:39:08;1.30;;;0.70;;
64842;SDS011;51310;52.198;5.422;2022-09-02T03:41:36;2.28;;;0.95;;
64842;SDS011;51310;52.198;5.422;2022-09-02T03:44:05;2.35;;;1.35;;
64842;SDS011;51310;52.198;5.422;2022-09-02T03:46:32;1.60;;;0.82;;
64842;SDS011;51310;52.198;5.422;2022-09-02T03:48:59;1.35;;;0.70;;
64842;SDS011;51310;52.198;5.422;2022-09-02T03:51:26;2.88;;;0.90;;
64842;SDS011;51310;52.198;5.422;2022-09-02T03:53:52;2.20;;;0.87;;
64842;SDS011;51310;52.198;5.422;2022-09-02T03:56:18;2.35;;;0.77;;
64842;SDS011;51310;52.198;5.422;2022-09-02T03:58:46;3.33;;;0.80;;
64842;SDS011;51310;52.198;5.422;2022-09-02T04:01:17;2.45;;;0.75;;
64842;SDS011;51310;52.198;5.422;2022-09-02T04:03:48;4.10;;;0.93;;
64842;SDS011;51310;52.198;5.422;2022-09-02T04:06:15;1.20;;;0.70;;
64842;SDS011;51310;52.198;5.422;2022-09-02T04:08:44;4.72;;;0.90;;
64842;SDS011;51310;52.198;5.422;2022-09-02T04:11:12;2.03;;;0.90;;
64842;SDS011;51310;52.198;5.422;2022-09-02T04:13:44;2.17;;;0.80;;
64842;SDS011;51310;52.198;5.422;2022-09-02T04:16:14;2.10;;;0.90;;
64842;SDS011;51310;52.198;5.422;2022-09-02T04:18:46;1.60;;;0.85;;
64842;SDS011;51310;52.198;5.422;2022-09-02T04:21:12;2.03;;;0.97;;
64842;SDS011;51310;52.198;5.422;2022-09-02T04:23:39;2.88;;;0.90;;
64842;SDS011;51310;52.198;5.422;2022-09-02T04:26:07;4.82;;;0.80;;
64842;SDS011;51310;52.198;5.422;2022-09-02T04:28:39;3.70;;;0.90;;
64842;SDS011;51310;52.198;5.422;2022-09-02T04:31:07;2.30;;;0.90;;
64842;SDS011;51310;52.198;5.422;2022-09-02T04:33:37;1.25;;;0.77;;
64842;SDS011;51310;52.198;5.422;2022-09-02T04:36:04;3.03;;;1.10;;
64842;SDS011;51310;52.198;5.422;2022-09-02T04:38:35;2.22;;;0.80;;
64842;SDS011;51310;52.198;5.422;2022-09-02T04:41:12;3.72;;;0.90;;
64842;SDS011;51310;52.198;5.422;2022-09-02T04:43:47;3.65;;;1.00;;
64842;SDS011;51310;52.198;5.422;2022-09-02T04:46:14;4.40;;;1.00;;
64842;SDS011;51310;52.198;5.422;2022-09-02T04:48:41;3.43;;;1.00;;
64842;SDS011;51310;52.198;5.422;2022-09-02T04:51:10;2.20;;;0.80;;
64842;SDS011;51310;52.198;5.422;2022-09-02T04:53:40;3.38;;;1.25;;
64842;SDS011;51310;52.198;5.422;2022-09-02T04:56:08;4.27;;;0.87;;
64842;SDS011;51310;52.198;5.422;2022-09-02T04:58:39;1.90;;;0.80;;
64842;SDS011;51310;52.198;5.422;2022-09-02T05:01:09;2.43;;;0.83;;
64842;SDS011;51310;52.198;5.422;2022-09-02T05:03:40;3.78;;;0.65;;
64842;SDS011;51310;52.198;5.422;2022-09-02T05:06:10;3.92;;;1.00;;
64842;SDS011;51310;52.198;5.422;2022-09-02T05:08:41;1.50;;;0.63;;
64842;SDS011;51310;52.198;5.422;2022-09-02T05:11:15;2.45;;;0.80;;
64842;SDS011;51310;52.198;5.422;2022-09-02T05:13:47;2.42;;;1.10;;
64842;SDS011;51310;52.198;5.422;2022-09-02T05:16:18;2.88;;;0.90;;
64842;SDS011;51310;52.198;5.422;2022-09-02T05:18:50;4.53;;;0.87;;
64842;SDS011;51310;52.198;5.422;2022-09-02T05:21:18;2.38;;;1.00;;
64842;SDS011;51310;52.198;5.422;2022-09-02T05:23:47;3.35;;;0.98;;
64842;SDS011;51310;52.198;5.422;2022-09-02T05:26:14;3.10;;;1.20;;
64842;SDS011;51310;52.198;5.422;2022-09-02T05:28:40;5.50;;;1.00;;
64842;SDS011;51310;52.198;5.422;2022-09-02T05:31:17;2.65;;;1.00;;
64842;SDS011;51310;52.198;5.422;2022-09-02T05:33:45;2.10;;;0.80;;
64842;SDS011;51310;52.198;5.422;2022-09-02T05:36:17;3.88;;;0.80;;
64842;SDS011;51310;52.198;5.422;2022-09-02T05:38:46;1.70;;;0.90;;
64842;SDS011;51310;52.198;5.422;2022-09-02T05:41:14;6.50;;;1.15;;
64842;SDS011;51310;52.198;5.422;2022-09-02T05:43:47;2.63;;;1.00;;
64842;SDS011;51310;52.198;5.422;2022-09-02T05:46:17;5.93;;;1.05;;
64842;SDS011;51310;52.198;5.422;2022-09-02T05:48:47;2.47;;;0.80;;
64842;SDS011;51310;52.198;5.422;2022-09-02T05:54:14;2.95;;;1.10;;
64842;SDS011;51310;52.198;5.422;2022-09-02T05:56:46;3.77;;;1.00;;
64842;SDS011;51310;52.198;5.422;2022-09-02T05:59:18;3.40;;;1.08;;
64842;SDS011;51310;52.198;5.422;2022-09-02T06:01:47;4.13;;;0.73;;
64842;SDS011;51310;52.198;5.422;2022-09-02T06:04:14;4.10;;;1.00;;
64842;SDS011;51310;52.198;5.422;2022-09-02T06:06:41;4.10;;;1.17;;
64842;SDS011;51310;52.198;5.422;2022-09-02T06:09:07;6.43;;;1.20;;
64842;SDS011;51310;52.198;5.422;2022-09-02T06:11:39;2.88;;;1.50;;
64842;SDS011;51310;52.198;5.422;2022-09-02T06:14:14;3.20;;;1.20;;
64842;SDS011;51310;52.198;5.422;2022-09-02T06:16:42;6.35;;;1.13;;
64842;SDS011;51310;52.198;5.422;2022-09-02T06:19:10;5.00;;;1.00;;
64842;SDS011;51310;52.198;5.422;2022-09-02T06:21:37;3.17;;;1.08;;
64842;SDS011;51310;52.198;5.422;2022-09-02T06:24:04;6.47;;;1.27;;
64842;SDS011;51310;52.198;5.422;2022-09-02T06:26:33;3.27;;;1.00;;
64842;SDS011;51310;52.198;5.422;2022-09-02T06:29:01;2.07;;;1.00;;
64842;SDS011;51310;52.198;5.422;2022-09-02T06:31:29;5.10;;;1.13;;
64842;SDS011;51310;52.198;5.422;2022-09-02T06:33:56;3.78;;;1.10;;
64842;SDS011;51310;52.198;5.422;2022-09-02T06:36:24;4.00;;;0.98;;
64842;SDS011;51310;52.198;5.422;2022-09-02T06:38:53;3.50;;;1.20;;
64842;SDS011;51310;52.198;5.422;2022-09-02T06:41:27;2.80;;;1.00;;
64842;SDS011;51310;52.198;5.422;2022-09-02T06:43:58;3.80;;;1.13;;
64842;SDS011;51310;52.198;5.422;2022-09-02T06:46:32;7.10;;;2.03;;
64842;SDS011;51310;52.198;5.422;2022-09-02T06:49:07;9.02;;;1.30;;
64842;SDS011;51310;52.198;5.422;2022-09-02T06:51:35;3.70;;;1.40;;
64842;SDS011;51310;52.198;5.422;2022-09-02T06:54:08;7.20;;;1.15;;
64842;SDS011;51310;52.198;5.422;2022-09-02T06:56:39;3.58;;;0.95;;
64842;SDS011;51310;52.198;5.422;2022-09-02T06:59:07;3.08;;;1.23;;
64842;SDS011;51310;52.198;5.422;2022-09-02T07:01:34;4.70;;;1.52;;
64842;SDS011;51310;52.198;5.422;2022-09-02T07:04:00;4.50;;;1.20;;
64842;SDS011;51310;52.198;5.422;2022-09-02T07:06:47;2.70;;;1.10;;
64842;SDS011;51310;52.198;5.422;2022-09-02T07:09:19;5.32;;;0.88;;
64842;SDS011;51310;52.198;5.422;2022-09-02T07:11:54;6.68;;;1.30;;
64842;SDS011;51310;52.198;5.422;2022-09-02T07:14:24;2.72;;;1.20;;
64842;SDS011;51310;52.198;5.422;2022-09-02T07:16:53;4.95;;;1.10;;
64842;SDS011;51310;52.198;5.422;2022-09-02T07:19:21;4.10;;;1.00;;
64842;SDS011;51310;52.198;5.422;2022-09-02T07:21:49;6.70;;;1.13;;
64842;SDS011;51310;52.198;5.422;2022-09-02T07:24:15;4.43;;;0.90;;
64842;SDS011;51310;52.198;5.422;2022-09-02T07:26:42;3.90;;;1.40;;
64842;SDS011;51310;52.198;5.422;2022-09-02T07:29:09;2.67;;;1.13;;
64842;SDS011;51310;52.198;5.422;2022-09-02T07:31:36;4.97;;;1.00;;
64842;SDS011;51310;52.198;5.422;2022-09-02T07:34:06;11.82;;;1.50;;
64842;SDS011;51310;52.198;5.422;2022-09-02T07:36:34;3.13;;;0.95;;
64842;SDS011;51310;52.198;5.422;2022-09-02T07:39:00;4.88;;;1.00;;
64842;SDS011;51310;52.198;5.422;2022-09-02T07:41:30;6.05;;;1.45;;
64842;SDS011;51310;52.198;5.422;2022-09-02T07:43:56;3.97;;;1.10;;
64842;SDS011;51310;52.198;5.422;2022-09-02T07:46:22;2.88;;;1.40;;
64842;SDS011;51310;52.198;5.422;2022-09-02T07:48:49;1.90;;;1.05;;
64842;SDS011;51310;52.198;5.422;2022-09-02T07:51:16;2.87;;;1.10;;
64842;SDS011;51310;52.198;5.422;2022-09-02T07:53:43;4.45;;;1.38;;
64842;SDS011;51310;52.198;5.422;2022-09-02T07:56:10;4.35;;;0.90;;
64842;SDS011;51310;52.198;5.422;2022-09-02T07:58:38;5.25;;;1.20;;
64842;SDS011;51310;52.198;5.422;2022-09-02T08:01:07;6.45;;;1.25;;
64842;SDS011;51310;52.198;5.422;2022-09-02T08:03:33;4.03;;;1.33;;
64842;SDS011;51310;52.198;5.422;2022-09-02T08:06:02;3.90;;;1.10;;
64842;SDS011;51310;52.198;5.422;2022-09-02T08:08:28;2.97;;;0.82;;
64842;SDS011;51310;52.198;5.422;2022-09-02T08:10:54;1.70;;;0.90;;
64842;SDS011;51310;52.198;5.422;2022-09-02T08:13:21;2.03;;;1.05;;
64842;SDS011;51310;52.198;5.422;2022-09-02T08:15:48;3.53;;;1.10;;
64842;SDS011;51310;52.198;5.422;2022-09-02T08:18:14;2.63;;;1.10;;
64842;SDS011;51310;52.198;5.422;2022-09-02T08:20:40;4.93;;;1.30;;
64842;SDS011;51310;52.198;5.422;2022-09-02T08:23:06;3.63;;;1.40;;
64842;SDS011;51310;52.198;5.422;2022-09-02T08:25:32;3.97;;;1.20;;
64842;SDS011;51310;52.198;5.422;2022-09-02T08:28:00;3.88;;;1.15;;
64842;SDS011;51310;52.198;5.422;2022-09-02T08:30:26;2.47;;;1.10;;
64842;SDS011;51310;52.198;5.422;2022-09-02T08:32:53;3.47;;;1.10;;
64842;SDS011;51310;52.198;5.422;2022-09-02T08:35:19;2.60;;;1.20;;
64842;SDS011;51310;52.198;5.422;2022-09-02T08:37:45;9.70;;;1.92;;
64842;SDS011;51310;52.198;5.422;2022-09-02T08:40:21;3.88;;;1.60;;
64842;SDS011;51310;52.198;5.422;2022-09-02T08:42:55;5.63;;;1.50;;
64842;SDS011;51310;52.198;5.422;2022-09-02T08:48:03;6.32;;;1.77;;
64842;SDS011;51310;52.198;5.422;2022-09-02T08:51:04;6.00;;;1.67;;
64842;SDS011;51310;52.198;5.422;2022-09-02T08:53:45;2.72;;;1.40;;
64842;SDS011;51310;52.198;5.422;2022-09-02T08:56:24;4.80;;;1.50;;
64842;SDS011;51310;52.198;5.422;2022-09-02T08:58:53;4.05;;;1.58;;
64842;SDS011;51310;52.198;5.422;2022-09-02T09:01:41;5.50;;;1.40;;
64842;SDS011;51310;52.198;5.422;2022-09-02T09:04:52;7.65;;;1.75;;
64842;SDS011;51310;52.198;5.422;2022-09-02T09:14:01;5.00;;;1.58;;
64842;SDS011;51310;52.198;5.422;2022-09-02T09:17:00;4.40;;;1.60;;
64842;SDS011;51310;52.198;5.422;2022-09-02T09:19:53;7.30;;;1.77;;
64842;SDS011;51310;52.198;5.422;2022-09-02T09:22:28;2.83;;;1.67;;
64842;SDS011;51310;52.198;5.422;2022-09-02T09:25:06;5.15;;;1.65;;
64842;SDS011;51310;52.198;5.422;2022-09-02T09:27:40;6.13;;;2.05;;
64842;SDS011;51310;52.198;5.422;2022-09-02T09:30:10;4.65;;;2.17;;
64842;SDS011;51310;52.198;5.422;2022-09-02T09:32:42;7.15;;;1.92;;
64842;SDS011;51310;52.198;5.422;2022-09-02T09:35:15;5.67;;;1.87;;
64842;SDS011;51310;52.198;5.422;2022-09-02T09:37:43;5.57;;;2.17;;
64842;SDS011;51310;52.198;5.422;2022-09-02T09:48:16;7.78;;;1.90;;
64842;SDS011;51310;52.198;5.422;2022-09-02T09:53:27;5.72;;;1.80;;
64842;SDS011;51310;52.198;5.422;2022-09-02T09:58:47;5.68;;;2.20;;
64842;SDS011;51310;52.198;5.422;2022-09-02T10:01:18;9.20;;;1.88;;
64842;SDS011;51310;52.198;5.422;2022-09-02T10:04:03;10.13;;;1.70;;
64842;SDS011;51310;52.198;5.422;2022-09-02T10:06:58;5.80;;;1.77;;
64842;SDS011;51310;52.198;5.422;2022-09-02T10:09:27;8.07;;;1.53;;
64842;SDS011;51310;52.198;5.422;2022-09-02T10:12:01;5.15;;;1.92;;
64842;SDS011;51310;52.198;5.422;2022-09-02T10:17:07;7.57;;;1.90;;
64842;SDS011;51310;52.198;5.422;2022-09-02T10:31:44;5.43;;;1.63;;
64842;SDS011;51310;52.198;5.422;2022-09-02T10:35:11;3.05;;;1.65;;
64842;SDS011;51310;52.198;5.422;2022-09-02T10:44:13;5.80;;;2.03;;
64842;SDS011;51310;52.198;5.422;2022-09-02T10:47:09;6.03;;;1.80;;
64842;SDS011;51310;52.198;5.422;2022-09-02T10:56:37;5.88;;;1.92;;
64842;SDS011;51310;52.198;5.422;2022-09-02T10:59:42;4.30;;;2.00;;
64842;SDS011;51310;52.198;5.422;2022-09-02T11:05:55;4.20;;;1.87;;
64842;SDS011;51310;52.198;5.422;2022-09-02T11:08:37;5.18;;;2.35;;
64842;SDS011;51310;52.198;5.422;2022-09-02T11:11:18;4.38;;;1.70;;
64842;SDS011;51310;52.198;5.422;2022-09-02T11:19:12;2.50;;;1.85;;
64842;SDS011;51310;52.198;5.422;2022-09-02T11:27:15;2.65;;;1.67;;
64842;SDS011;51310;52.198;5.422;2022-09-02T11:30:01;2.83;;;2.08;;
64842;SDS011;51310;52.198;5.422;2022-09-02T11:32:43;6.55;;;1.88;;
64842;SDS011;51310;52.198;5.422;2022-09-02T11:35:43;3.85;;;1.70;;
64842;SDS011;51310;52.198;5.422;2022-09-02T11:53:48;4.85;;;2.08;;
64842;SDS011;51310;52.198;5.422;2022-09-02T11:56:20;2.50;;;1.80;;
64842;SDS011;51310;52.198;5.422;2022-09-02T11:58:53;5.63;;;1.80;;
64842;SDS011;51310;52.198;5.422;2022-09-02T12:01:24;3.92;;;2.13;;
64842;SDS011;51310;52.198;5.422;2022-09-02T12:23:02;3.95;;;1.75;;
64842;SDS011;51310;52.198;5.422;2022-09-02T12:33:39;4.95;;;1.50;;
64842;SDS011;51310;52.198;5.422;2022-09-02T12:36:43;8.23;;;1.80;;
64842;SDS011;51310;52.198;5.422;2022-09-02T12:58:47;3.63;;;1.80;;
64842;SDS011;51310;52.198;5.422;2022-09-02T13:01:28;7.07;;;2.00;;
64842;SDS011;51310;52.198;5.422;2022-09-02T13:07:44;4.13;;;1.88;;
64842;SDS011;51310;52.198;5.422;2022-09-02T13:14:40;3.90;;;1.70;;
64842;SDS011;51310;52.198;5.422;2022-09-02T13:21:00;5.65;;;1.98;;
64842;SDS011;51310;52.198;5.422;2022-09-02T13:24:16;6.90;;;1.97;;
64842;SDS011;51310;52.198;5.422;2022-09-02T13:33:58;4.57;;;1.75;;
64842;SDS011;51310;52.198;5.422;2022-09-02T13:36:33;3.90;;;1.60;;
64842;SDS011;51310;52.198;5.422;2022-09-02T13:39:14;4.50;;;1.40;;
64842;SDS011;51310;52.198;5.422;2022-09-02T13:41:49;3.55;;;1.50;;
64842;SDS011;51310;52.198;5.422;2022-09-02T13:44:25;6.05;;;1.80;;
64842;SDS011;51310;52.198;5.422;2022-09-02T13:46:58;4.90;;;1.77;;
64842;SDS011;51310;52.198;5.422;2022-09-02T13:49:40;2.53;;;1.40;;
64842;SDS011;51310;52.198;5.422;2022-09-02T13:52:11;2.42;;;1.63;;
64842;SDS011;51310;52.198;5.422;2022-09-02T13:54:46;2.67;;;1.40;;
64842;SDS011;51310;52.198;5.422;2022-09-02T13:57:22;4.32;;;1.70;;
64842;SDS011;51310;52.198;5.422;2022-09-02T13:59:52;6.88;;;1.70;;
64842;SDS011;51310;52.198;5.422;2022-09-02T14:02:23;3.03;;;1.40;;
64842;SDS011;51310;52.198;5.422;2022-09-02T14:04:56;6.70;;;1.73;;
64842;SDS011;51310;52.198;5.422;2022-09-02T14:07:30;2.00;;;1.50;;
64842;SDS011;51310;52.198;5.422;2022-09-02T14:10:09;2.83;;;1.55;;
64842;SDS011;51310;52.198;5.422;2022-09-02T14:12:41;4.05;;;1.50;;
64842;SDS011;51310;52.198;5.422;2022-09-02T14:15:09;2.47;;;1.42;;
64842;SDS011;51310;52.198;5.422;2022-09-02T14:17:40;1.98;;;1.40;;
64842;SDS011;51310;52.198;5.422;2022-09-02T14:20:14;3.17;;;1.58;;
64842;SDS011;51310;52.198;5.422;2022-09-02T14:22:51;3.83;;;1.60;;
64842;SDS011;51310;52.198;5.422;2022-09-02T14:25:23;4.68;;;1.60;;
64842;SDS011;51310;52.198;5.422;2022-09-02T14:27:57;4.40;;;1.50;;
64842;SDS011;51310;52.198;5.422;2022-09-02T14:43:59;5.85;;;1.60;;
64842;SDS011;51310;52.198;5.422;2022-09-02T14:47:06;2.60;;;1.40;;
64842;SDS011;51310;52.198;5.422;2022-09-02T14:49:47;2.87;;;1.40;;
64842;SDS011;51310;52.198;5.422;2022-09-02T14:52:23;2.40;;;1.25;;
64842;SDS011;51310;52.198;5.422;2022-09-02T14:54:57;4.22;;;1.88;;
64842;SDS011;51310;52.198;5.422;2022-09-02T14:57:27;3.95;;;1.50;;
64842;SDS011;51310;52.198;5.422;2022-09-02T15:02:37;2.90;;;1.70;;
64842;SDS011;51310;52.198;5.422;2022-09-02T15:05:09;5.82;;;1.50;;
64842;SDS011;51310;52.198;5.422;2022-09-02T15:07:40;4.40;;;1.60;;
64842;SDS011;51310;52.198;5.422;2022-09-02T15:10:06;4.03;;;2.03;;
64842;SDS011;51310;52.198;5.422;2022-09-02T15:12:34;14.25;;;1.60;;
64842;SDS011;51310;52.198;5.422;2022-09-02T15:15:12;2.78;;;1.58;;
64842;SDS011;51310;52.198;5.422;2022-09-02T15:17:38;3.78;;;1.70;;
64842;SDS011;51310;52.198;5.422;2022-09-02T15:20:03;3.60;;;1.60;;
64842;SDS011;51310;52.198;5.422;2022-09-02T15:22:32;4.57;;;1.70;;
64842;SDS011;51310;52.198;5.422;2022-09-02T15:24:58;2.35;;;1.50;;
64842;SDS011;51310;52.198;5.422;2022-09-02T15:27:24;3.72;;;1.80;;
64842;SDS011;51310;52.198;5.422;2022-09-02T15:29:50;5.50;;;2.30;;
64842;SDS011;51310;52.198;5.422;2022-09-02T15:32:17;2.35;;;1.58;;
64842;SDS011;51310;52.198;5.422;2022-09-02T15:34:43;4.07;;;1.50;;
64842;SDS011;51310;52.198;5.422;2022-09-02T15:37:09;4.07;;;1.90;;
64842;SDS011;51310;52.198;5.422;2022-09-02T15:39:35;2.60;;;1.80;;
64842;SDS011;51310;52.198;5.422;2022-09-02T15:42:01;2.20;;;1.38;;
64842;SDS011;51310;52.198;5.422;2022-09-02T15:44:27;2.50;;;1.45;;
64842;SDS011;51310;52.198;5.422;2022-09-02T15:46:53;4.63;;;1.70;;
64842;SDS011;51310;52.198;5.422;2022-09-02T15:49:20;2.55;;;1.75;;
64842;SDS011;51310;52.198;5.422;2022-09-02T15:51:48;4.00;;;2.20;;
64842;SDS011;51310;52.198;5.422;2022-09-02T15:54:16;10.50;;;3.90;;
64842;SDS011;51310;52.198;5.422;2022-09-02T15:56:46;4.13;;;2.63;;
64842;SDS011;51310;52.198;5.422;2022-09-02T15:59:14;4.00;;;1.75;;
64842;SDS011;51310;52.198;5.422;2022-09-02T16:01:45;5.30;;;2.40;;
64842;SDS011;51310;52.198;5.422;2022-09-02T16:04:14;6.63;;;2.67;;
64842;SDS011;51310;52.198;5.422;2022-09-02T16:06:42;7.25;;;4.05;;
64842;SDS011;51310;52.198;5.422;2022-09-02T16:09:13;6.03;;;3.53;;
64842;SDS011;51310;52.198;5.422;2022-09-02T16:11:46;6.70;;;3.10;;
64842;SDS011;51310;52.198;5.422;2022-09-02T16:14:18;3.30;;;2.10;;
64842;SDS011;51310;52.198;5.422;2022-09-02T16:16:46;4.55;;;2.05;;
64842;SDS011;51310;52.198;5.422;2022-09-02T16:19:18;3.92;;;1.90;;
64842;SDS011;51310;52.198;5.422;2022-09-02T16:21:47;4.93;;;2.00;;
64842;SDS011;51310;52.198;5.422;2022-09-02T16:24:14;6.60;;;1.88;;
64842;SDS011;51310;52.198;5.422;2022-09-02T16:26:41;4.70;;;2.20;;
64842;SDS011;51310;52.198;5.422;2022-09-02T16:29:09;5.22;;;1.77;;
64842;SDS011;51310;52.198;5.422;2022-09-02T16:31:38;3.78;;;1.70;;
64842;SDS011;51310;52.198;5.422;2022-09-02T16:34:14;3.03;;;2.00;;
64842;SDS011;51310;52.198;5.422;2022-09-02T16:36:44;3.20;;;1.70;;
64842;SDS011;51310;52.198;5.422;2022-09-02T16:39:14;4.10;;;1.90;;
64842;SDS011;51310;52.198;5.422;2022-09-02T16:41:44;8.13;;;2.50;;
64842;SDS011;51310;52.198;5.422;2022-09-02T16:44:18;3.10;;;1.95;;
64842;SDS011;51310;52.198;5.422;2022-09-02T16:46:48;3.30;;;1.80;;
64842;SDS011;51310;52.198;5.422;2022-09-02T16:49:17;5.47;;;2.22;;
64842;SDS011;51310;52.198;5.422;2022-09-02T16:51:46;2.78;;;2.05;;
64842;SDS011;51310;52.198;5.422;2022-09-02T16:54:15;3.08;;;1.88;;
64842;SDS011;51310;52.198;5.422;2022-09-02T16:56:43;7.07;;;2.42;;
64842;SDS011;51310;52.198;5.422;2022-09-02T16:59:10;2.55;;;1.85;;
64842;SDS011;51310;52.198;5.422;2022-09-02T17:01:37;4.10;;;1.80;;
64842;SDS011;51310;52.198;5.422;2022-09-02T17:04:04;3.25;;;1.92;;
64842;SDS011;51310;52.198;5.422;2022-09-02T17:06:31;5.82;;;1.85;;
64842;SDS011;51310;52.198;5.422;2022-09-02T17:08:58;3.22;;;1.60;;
64842;SDS011;51310;52.198;5.422;2022-09-02T17:11:25;5.00;;;1.80;;
64842;SDS011;51310;52.198;5.422;2022-09-02T17:13:58;5.97;;;2.15;;
64842;SDS011;51310;52.198;5.422;2022-09-02T17:16:35;7.38;;;1.98;;
64842;SDS011;51310;52.198;5.422;2022-09-02T17:19:11;4.30;;;1.80;;
64842;SDS011;51310;52.198;5.422;2022-09-02T17:21:45;7.27;;;2.20;;
64842;SDS011;51310;52.198;5.422;2022-09-02T17:24:17;4.47;;;1.85;;
64842;SDS011;51310;52.198;5.422;2022-09-02T17:26:48;7.07;;;1.75;;
64842;SDS011;51310;52.198;5.422;2022-09-02T17:29:20;7.20;;;1.60;;
64842;SDS011;51310;52.198;5.422;2022-09-02T17:31:49;4.80;;;1.47;;
64842;SDS011;51310;52.198;5.422;2022-09-02T17:34:15;3.42;;;1.40;;
64842;SDS011;51310;52.198;5.422;2022-09-02T17:36:41;5.32;;;1.40;;
64842;SDS011;51310;52.198;5.422;2022-09-02T17:39:09;3.88;;;1.60;;
64842;SDS011;51310;52.198;5.422;2022-09-02T17:41:39;5.40;;;1.67;;
64842;SDS011;51310;52.198;5.422;2022-09-02T17:46:59;6.15;;;1.30;;
64842;SDS011;51310;52.198;5.422;2022-09-02T17:49:44;4.43;;;1.70;;
64842;SDS011;51310;52.198;5.422;2022-09-02T17:52:12;8.43;;;1.70;;
64842;SDS011;51310;52.198;5.422;2022-09-02T17:54:47;3.03;;;1.70;;
64842;SDS011;51310;52.198;5.422;2022-09-02T18:00:34;3.63;;;1.50;;
64842;SDS011;51310;52.198;5.422;2022-09-02T18:03:17;6.80;;;1.90;;